Time;durP1;ratioP1;P1;durP2;ratioP2;P2;SDS_P1;SDS_P2;PMS_P1;PMS_P2;Temp;Humidity;BMP_temperature;BMP_pressure;BME280_temperature;BME280_humidity;BME280_pressure;Samples;Min_cycle;Max_cycle;Signal;HPM_P1;HPM_P2
2022/12/11 00:01:33;;;;;;;;;;;;;;;1.83;100.00;98805.53;5005694;28;19917;-71
2022/12/11 00:03:58;;;;;;;;;;;;;;;1.84;100.00;98816.50;5005442;28;19913;-71
2022/12/11 00:06:23;;;;;;;;;;;;;;;2.01;100.00;98819.91;5005893;28;20400;-71
2022/12/11 00:08:52;;;;;;;;;;;;;;;2.01;100.00;98825.00;5004934;28;20400;-72
2022/12/11 00:11:18;;;;;;;;;;;;;;;2.13;100.00;98823.28;5004089;28;20012;-71
2022/12/11 00:13:44;;;;;;;;;;;;;;;2.17;100.00;98824.97;5005314;28;19996;-71
2022/12/11 00:16:09;;;;;;;;;;;;;;;1.74;100.00;98814.84;5004158;28;19932;-71
2022/12/11 00:18:34;;;;;;;;;;;;;;;2.12;100.00;98824.97;5003807;28;19999;-71
2022/12/11 00:21:00;;;;;;;;;;;;;;;2.25;100.00;98828.34;5005273;28;19948;-71
2022/12/11 00:23:25;;;;;;;;;;;;;;;2.02;100.00;98825.81;5004080;28;20242;-71
2022/12/11 00:25:51;;;;;;;;;;;;;;;2.03;100.00;98823.28;5003893;28;19971;-71
2022/12/11 00:28:17;;;;;;;;;;;;;;;2.38;100.00;98832.56;5004800;28;19928;-71
2022/12/11 00:30:43;;;;;;;;;;;;;;;2.19;100.00;98823.25;5005266;28;20280;-71
2022/12/11 00:33:09;;;;;;;;;;;;;;;2.11;100.00;98817.38;5003421;28;19913;-71
2022/12/11 00:35:40;;;;;;;;;;;;;;;1.97;100.00;98813.13;5004106;28;19914;-71
2022/12/11 00:38:05;;;;;;;;;;;;;;;2.35;100.00;98829.16;5005231;28;19921;-71
2022/12/11 00:40:32;;;;;;;;;;;;;;;2.37;100.00;98818.16;5004852;28;20430;-71
2022/12/11 00:42:57;;;;;;;;;;;;;;;2.12;100.00;98812.25;5004190;28;19921;-71
2022/12/11 00:45:23;;;;;;;;;;;;;;;2.37;100.00;98823.22;5005049;28;19917;-71
2022/12/11 00:47:48;;;;;;;;;;;;;;;2.32;100.00;98819.84;5003701;28;19917;-71
2022/12/11 00:50:13;;;;;;;;;;;;;;;2.47;100.00;98824.91;5004510;28;19922;-71
2022/12/11 00:52:39;;;;;;;;;;;;;;;2.23;100.00;98807.16;5003291;28;19918;-71
2022/12/11 00:55:04;;;;;;;;;;;;;;;2.51;100.00;98821.53;5005036;28;20484;-71
2022/12/11 00:57:30;;;;;;;;;;;;;;;2.51;100.00;98826.59;5002846;28;19928;-71
2022/12/11 00:59:55;;;;;;;;;;;;;;;2.62;100.00;98823.19;5004471;28;20562;-71
2022/12/11 01:02:20;;;;;;;;;;;;;;;2.68;100.00;98823.16;5004746;28;19913;-71
2022/12/11 01:04:45;;;;;;;;;;;;;;;2.88;100.00;98826.50;5003672;28;19921;-71
2022/12/11 01:07:11;;;;;;;;;;;;;;;2.75;100.00;98814.66;5004775;28;19925;-71
2022/12/11 01:12:20;;;;;;;;;;;;;;;2.65;100.00;98802.84;5004277;28;20346;-71
2022/12/11 01:14:45;;;;;;;;;;;;;;;2.49;100.00;98797.81;5004906;28;19953;-71
2022/12/11 01:17:10;;;;;;;;;;;;;;;2.10;100.00;98783.50;5004527;28;19922;-71
2022/12/11 01:19:36;;;;;;;;;;;;;;;2.32;100.00;98794.44;5004438;28;19921;-71
2022/12/11 01:22:01;;;;;;;;;;;;;;;1.86;100.00;98795.34;5004393;28;19918;-71
2022/12/11 01:24:26;;;;;;;;;;;;;;;1.57;100.00;98808.03;5004253;28;19918;-71
2022/12/11 01:26:51;;;;;;;;;;;;;;;1.34;100.00;98827.47;5004401;28;19937;-71
2022/12/11 01:29:17;;;;;;;;;;;;;;;1.44;100.00;98852.84;5003407;28;19929;-71
2022/12/11 01:31:42;;;;;;;;;;;;;;;0.97;100.00;98855.25;5004140;28;19917;-71
2022/12/11 01:34:07;;;;;;;;;;;;;;;0.89;100.00;98877.16;5003889;28;19933;-71
2022/12/11 01:36:32;;;;;;;;;;;;;;;0.82;91.68;98891.50;5005094;28;19926;-71
2022/12/11 01:38:58;;;;;;;;;;;;;;;0.81;83.74;98916.00;5007908;28;19921;-71
2022/12/11 01:41:23;;;;;;;;;;;;;;;0.88;77.74;98933.78;5006805;28;19929;-71
2022/12/11 01:43:54;;;;;;;;;;;;;;;0.94;74.13;98957.50;5007875;28;19917;-71
2022/12/11 01:46:20;;;;;;;;;;;;;;;0.84;71.22;98978.53;5004201;28;20643;-71
2022/12/11 01:48:45;;;;;;;;;;;;;;;1.02;67.73;99000.63;5005614;28;19928;-71
2022/12/11 01:51:10;;;;;;;;;;;;;;;0.84;67.35;99006.44;5005998;28;19921;-71
2022/12/11 01:53:37;;;;;;;;;;;;;;;0.78;66.13;99014.84;5006315;28;19921;-71
2022/12/11 01:56:02;;;;;;;;;;;;;;;0.78;65.10;99034.28;5007604;28;19921;-71
2022/12/11 01:58:31;;;;;;;;;;;;;;;1.06;63.42;99045.47;5003402;28;20206;-71
2022/12/11 02:00:56;;;;;;;;;;;;;;;0.57;64.83;99042.53;5006323;28;19918;-71
2022/12/11 02:03:22;;;;;;;;;;;;;;;0.57;63.05;99052.69;5004742;28;19956;-71
2022/12/11 02:05:47;;;;;;;;;;;;;;;0.50;62.42;99082.19;5004983;28;20170;-71
2022/12/11 02:08:12;;;;;;;;;;;;;;;0.64;64.10;99100.06;5005225;28;19921;-71
2022/12/11 02:10:43;;;;;;;;;;;;;;;1.00;63.98;99118.97;5005520;28;20008;-71
2022/12/11 02:13:22;;;;;;;;;;;;;;;0.73;65.94;99129.69;5005027;28;19926;-71
2022/12/11 02:16:08;;;;;;;;;;;;;;;0.94;65.43;99139.22;5005311;28;19925;-71
2022/12/11 02:18:45;;;;;;;;;;;;;;;0.64;67.36;99140.63;5006628;28;19924;-71
2022/12/11 02:21:19;;;;;;;;;;;;;;;0.60;67.50;99149.03;5007470;28;20378;-71
2022/12/11 02:23:51;;;;;;;;;;;;;;;0.75;67.43;99164.41;5005860;28;19928;-71
2022/12/11 02:26:34;;;;;;;;;;;;;;;0.56;68.68;99172.63;5007346;28;19963;-71
2022/12/11 02:29:00;;;;;;;;;;;;;;;0.55;69.21;99176.84;5007067;28;20008;-71
2022/12/11 02:31:32;;;;;;;;;;;;;;;0.72;69.46;99187.16;5005269;28;20017;-71
2022/12/11 02:34:07;;;;;;;;;;;;;;;1.39;68.54;99230.06;5007060;28;20040;-71
2022/12/11 02:36:33;;;;;;;;;;;;;;;1.51;69.62;99224.25;5006720;28;19980;-71
2022/12/11 02:38:58;;;;;;;;;;;;;;;1.47;70.67;99217.44;4988966;28;19921;-71
2022/12/11 02:41:23;;;;;;;;;;;;;;;1.32;71.49;99212.22;5005207;28;19980;-71
2022/12/11 02:43:49;;;;;;;;;;;;;;;1.47;70.34;99197.13;5005692;28;19944;-71
2022/12/11 02:46:14;;;;;;;;;;;;;;;1.48;70.94;99190.38;5007155;28;19917;-71
2022/12/11 02:48:39;;;;;;;;;;;;;;;1.65;69.71;99181.19;5004480;28;19926;-71
2022/12/11 02:51:05;;;;;;;;;;;;;;;2.11;68.22;99185.69;5005216;28;20263;-71
2022/12/11 02:53:31;;;;;;;;;;;;;;;1.98;68.51;99164.44;5005231;28;19971;-71
2022/12/11 02:56:00;;;;;;;;;;;;;;;1.52;69.10;99134.56;5005499;28;19978;-71
2022/12/11 02:58:29;;;;;;;;;;;;;;;1.11;69.33;99103.84;5006188;28;19965;-71
2022/12/11 03:00:54;;;;;;;;;;;;;;;1.40;65.84;99115.03;5005129;28;19984;-71
2022/12/11 03:03:20;;;;;;;;;;;;;;;0.68;69.37;99096.72;5004740;28;20622;-71
2022/12/11 03:05:45;;;;;;;;;;;;;;;1.08;63.76;99122.41;5004961;28;19996;-71
2022/12/11 03:08:11;;;;;;;;;;;;;;;0.90;64.57;99119.72;5006655;28;19917;-71
2022/12/11 03:10:36;;;;;;;;;;;;;;;0.29;66.68;99113.22;5004996;28;20631;-71
2022/12/11 03:13:01;;;;;;;;;;;;;;;0.30;66.07;99130.13;5005912;28;19921;-71
2022/12/11 03:15:33;;;;;;;;;;;;;;;0.29;66.21;99142.75;5006655;28;19929;-71
2022/12/11 03:18:12;;;;;;;;;;;;;;;0.23;66.84;99171.41;5005892;28;19932;-71
2022/12/11 03:20:42;;;;;;;;;;;;;;;-0.02;69.43;99173.63;5005146;28;20284;-71
2022/12/11 03:23:16;;;;;;;;;;;;;;;0.05;70.65;99201.56;5006160;28;19921;-71
2022/12/11 03:26:00;;;;;;;;;;;;;;;-0.01;73.01;99231.00;5005999;28;19921;-71
2022/12/11 03:28:28;;;;;;;;;;;;;;;0.27;74.32;99269.38;4995724;28;19932;-71
2022/12/11 03:30:53;;;;;;;;;;;;;;;0.27;76.20;99287.09;5004726;28;19921;-71
2022/12/11 03:33:21;;;;;;;;;;;;;;;0.20;77.96;99306.44;5004353;28;19921;-71
2022/12/11 03:35:51;;;;;;;;;;;;;;;0.27;79.74;99325.09;5004700;28;19984;-71
2022/12/11 03:38:20;;;;;;;;;;;;;;;0.24;81.53;99340.25;5004250;28;19918;-71
2022/12/11 03:40:45;;;;;;;;;;;;;;;0.08;82.90;99353.53;5005845;28;19965;-71
2022/12/11 03:43:11;;;;;;;;;;;;;;;0.36;82.28;99380.97;5004440;28;19918;-71
2022/12/11 03:45:36;;;;;;;;;;;;;;;0.38;82.92;99393.66;5004792;28;19963;-71
2022/12/11 03:48:01;;;;;;;;;;;;;;;0.44;83.29;99410.66;5003935;28;20020;-71
2022/12/11 03:50:27;;;;;;;;;;;;;;;0.36;83.32;99405.44;5003725;28;19960;-71
2022/12/11 03:52:52;;;;;;;;;;;;;;;0.57;83.27;99422.66;5004881;28;19922;-71
2022/12/11 03:55:17;;;;;;;;;;;;;;;0.44;84.19;99425.84;5004024;28;19980;-71
2022/12/11 03:57:42;;;;;;;;;;;;;;;0.40;85.32;99430.84;5005013;28;19921;-71
2022/12/11 04:00:13;;;;;;;;;;;;;;;0.54;86.09;99432.75;5002923;28;19986;-71
2022/12/11 04:02:39;;;;;;;;;;;;;;;0.72;86.02;99453.31;5005496;28;19917;-71
2022/12/11 04:05:04;;;;;;;;;;;;;;;0.08;88.09;99416.81;5005098;28;20069;-71
2022/12/11 04:07:30;;;;;;;;;;;;;;;0.18;88.90;99424.63;5003669;28;19954;-71
2022/12/11 04:09:55;;;;;;;;;;;;;;;0.00;90.12;99429.38;5004559;28;19928;-71
2022/12/11 04:12:20;;;;;;;;;;;;;;;0.21;90.03;99446.59;5003350;28;20323;-71
2022/12/11 04:15:01;;;;;;;;;;;;;;;0.20;89.77;99457.53;5004584;28;20032;-71
2022/12/11 04:25:38;;;;;;;;;;;;;;;0.33;91.67;99506.75;5003947;28;19948;-71
2022/12/11 04:28:03;;;;;;;;;;;;;;;0.55;91.24;99525.72;5003745;28;19922;-71
2022/12/11 04:30:28;;;;;;;;;;;;;;;0.66;91.19;99528.41;5003215;28;19929;-71
2022/12/11 04:32:54;;;;;;;;;;;;;;;0.78;90.94;99539.59;5004380;28;19965;-71
2022/12/11 04:35:19;;;;;;;;;;;;;;;0.77;90.52;99537.88;5004864;28;20050;-71
2022/12/11 04:37:44;;;;;;;;;;;;;;;0.87;90.06;99533.84;5004997;28;20281;-71
2022/12/11 04:40:11;;;;;;;;;;;;;;;0.95;89.56;99526.31;5004341;28;20026;-71
2022/12/11 04:42:36;;;;;;;;;;;;;;;0.70;89.84;99507.34;5005156;28;19964;-71
2022/12/11 04:45:02;;;;;;;;;;;;;;;0.95;88.45;99518.72;5004736;28;19922;-71
2022/12/11 04:47:27;;;;;;;;;;;;;;;1.00;88.42;99515.44;5003557;28;19920;-71
2022/12/11 04:49:52;;;;;;;;;;;;;;;0.81;87.55;99494.00;5004452;28;20392;-71
2022/12/11 04:52:17;;;;;;;;;;;;;;;0.57;88.17;99478.41;5004770;28;19917;-71
2022/12/11 04:54:43;;;;;;;;;;;;;;;0.83;87.45;99487.28;5003848;28;20225;-71
2022/12/11 04:57:08;;;;;;;;;;;;;;;0.93;86.98;99490.78;5004207;28;19925;-71
2022/12/11 04:59:33;;;;;;;;;;;;;;;0.70;86.87;99472.72;5004433;28;19929;-71
2022/12/11 05:01:58;;;;;;;;;;;;;;;0.99;85.97;99485.81;5004432;28;19921;-70
2022/12/11 05:04:24;;;;;;;;;;;;;;;1.01;85.51;99480.78;5003098;28;19968;-71
2022/12/11 05:06:49;;;;;;;;;;;;;;;0.90;85.28;99467.94;5002817;28;20438;-71
2022/12/11 05:09:14;;;;;;;;;;;;;;;1.41;82.50;99481.28;5003925;28;19921;-71
2022/12/11 05:11:39;;;;;;;;;;;;;;;2.03;79.34;99508.25;5002618;28;19944;-71
2022/12/11 05:14:05;;;;;;;;;;;;;;;1.90;76.33;99474.25;5004185;28;19921;-70
2022/12/11 05:16:30;;;;;;;;;;;;;;;1.66;74.48;99442.66;5004289;28;19940;-70
2022/12/11 05:18:55;;;;;;;;;;;;;;;1.29;74.13;99385.59;5003228;28;19928;-70
2022/12/11 05:21:20;;;;;;;;;;;;;;;1.35;72.59;99385.66;5004776;28;19975;-70
2022/12/11 05:23:46;;;;;;;;;;;;;;;1.45;70.75;99381.53;5002680;28;19921;-71
2022/12/11 05:26:12;;;;;;;;;;;;;;;1.07;71.36;99343.03;5004138;28;19924;-71
2022/12/11 05:28:38;;;;;;;;;;;;;;;1.30;69.64;99353.44;5004182;28;19968;-71
2022/12/11 05:31:04;;;;;;;;;;;;;;;1.09;69.20;99332.06;5002893;28;19921;-71
2022/12/11 05:33:29;;;;;;;;;;;;;;;0.81;69.52;99316.53;5002534;28;20028;-71
2022/12/11 05:35:54;;;;;;;;;;;;;;;0.91;68.81;99324.25;5003352;28;20015;-71
2022/12/11 05:38:20;;;;;;;;;;;;;;;1.14;67.12;99330.47;5002116;28;19921;-70
2022/12/11 05:40:53;;;;;;;;;;;;;;;1.25;65.49;99338.19;5001820;28;19975;-70
2022/12/11 05:43:19;;;;;;;;;;;;;;;1.18;64.54;99332.19;5003098;28;19913;-70
2022/12/11 05:45:44;;;;;;;;;;;;;;;1.07;64.30;99313.44;5004390;28;19924;-71
2022/12/11 05:48:09;;;;;;;;;;;;;;;1.07;63.89;99310.91;5003573;28;20015;-71
2022/12/11 05:50:35;;;;;;;;;;;;;;;1.27;62.20;99315.38;5003064;28;19957;-71
2022/12/11 05:53:00;;;;;;;;;;;;;;;1.14;62.93;99300.03;5004185;28;19932;-71
2022/12/11 05:55:25;;;;;;;;;;;;;;;1.30;62.00;99302.69;5004408;28;19932;-71
2022/12/11 05:57:50;;;;;;;;;;;;;;;1.79;60.17;99323.47;5004084;28;19922;-71
2022/12/11 06:00:15;;;;;;;;;;;;;;;1.87;61.23;99309.13;5004076;28;19925;-70
2022/12/11 06:02:41;;;;;;;;;;;;;;;1.90;62.96;99285.47;5004267;28;19976;-70
2022/12/11 06:05:06;;;;;;;;;;;;;;;2.07;63.79;99273.72;5004048;28;19921;-71
2022/12/11 06:07:31;;;;;;;;;;;;;;;1.53;68.82;99227.66;5003831;28;19996;-71
2022/12/11 06:09:56;;;;;;;;;;;;;;;1.37;68.67;99201.31;5003514;28;20474;-70
2022/12/11 06:12:22;;;;;;;;;;;;;;;1.49;67.46;99200.53;5002321;28;20487;-71
2022/12/11 06:14:47;;;;;;;;;;;;;;;1.54;67.42;99198.88;5003931;28;20364;-71
2022/12/11 06:17:12;;;;;;;;;;;;;;;1.68;67.00;99201.53;5003884;28;19918;-71
2022/12/11 06:19:37;;;;;;;;;;;;;;;1.51;68.04;99187.88;5003033;28;19963;-71
2022/12/11 06:22:03;;;;;;;;;;;;;;;1.76;67.52;99188.91;5003949;28;19917;-71
2022/12/11 06:24:28;;;;;;;;;;;;;;;1.42;69.88;99164.13;5004810;28;20308;-71
2022/12/11 06:26:53;;;;;;;;;;;;;;;1.28;69.21;99155.56;5006115;28;20490;-71
2022/12/11 06:29:18;;;;;;;;;;;;;;;1.60;67.31;99168.47;5007010;28;20442;-71
2022/12/11 06:31:44;;;;;;;;;;;;;;;1.73;67.63;99168.53;5007085;28;20366;-71
2022/12/11 06:34:10;;;;;;;;;;;;;;;1.64;69.18;99154.97;5007037;28;21162;-71
2022/12/11 06:36:35;;;;;;;;;;;;;;;2.05;67.70;99171.25;5005437;28;19931;-71
2022/12/11 06:39:00;;;;;;;;;;;;;;;2.03;68.98;99153.50;5006985;28;19917;-71
2022/12/11 06:41:26;;;;;;;;;;;;;;;2.17;70.38;99151.00;5006667;28;19918;-71
2022/12/11 06:43:51;;;;;;;;;;;;;;;1.76;74.09;99122.88;5007017;28;19917;-71
2022/12/11 06:46:17;;;;;;;;;;;;;;;1.63;74.18;99107.56;5007635;28;19913;-71
2022/12/11 06:48:42;;;;;;;;;;;;;;;1.90;72.95;99112.78;5006881;28;19937;-71
2022/12/11 06:51:08;;;;;;;;;;;;;;;2.26;72.35;99125.63;5005646;28;19921;-71
2022/12/11 06:53:34;;;;;;;;;;;;;;;2.24;74.60;99113.78;5006460;28;19944;-71
2022/12/11 06:56:06;;;;;;;;;;;;;;;2.36;75.73;99110.41;5005555;28;20001;-71
2022/12/11 06:58:32;;;;;;;;;;;;;;;2.36;77.75;99097.72;5005587;28;20434;-71
2022/12/11 07:00:57;;;;;;;;;;;;;;;2.11;81.09;99068.84;5006147;28;19917;-71
2022/12/11 07:03:23;;;;;;;;;;;;;;;1.39;84.31;99021.13;5006894;28;20547;-71
2022/12/11 07:05:48;;;;;;;;;;;;;;;1.37;80.75;99038.03;5006653;28;19983;-71
2022/12/11 07:08:13;;;;;;;;;;;;;;;1.60;77.96;99055.94;5006434;28;19925;-71
2022/12/11 07:10:39;;;;;;;;;;;;;;;2.05;75.75;99075.59;5006728;28;19923;-71
2022/12/11 07:13:04;;;;;;;;;;;;;;;2.37;76.04;99086.69;5006056;28;19918;-71
2022/12/11 07:15:29;;;;;;;;;;;;;;;2.53;78.11;99075.69;5006337;28;19987;-71
2022/12/11 07:17:54;;;;;;;;;;;;;;;2.62;80.47;99067.25;5004981;28;19933;-71
2022/12/11 07:20:20;;;;;;;;;;;;;;;2.46;84.93;99041.81;5006234;28;19968;-71
2022/12/11 07:22:45;;;;;;;;;;;;;;;2.63;85.30;99035.91;5004976;28;19962;-71
2022/12/11 07:25:10;;;;;;;;;;;;;;;2.13;90.12;99012.13;5006193;28;19956;-71
2022/12/11 07:27:35;;;;;;;;;;;;;;;1.58;91.27;98984.88;5004619;28;19921;-71
2022/12/11 07:30:01;;;;;;;;;;;;;;;1.17;90.32;98980.44;5006032;28;19917;-71
2022/12/11 07:32:26;;;;;;;;;;;;;;;0.91;86.72;98989.56;5005368;28;19917;-71
2022/12/11 07:34:51;;;;;;;;;;;;;;;1.12;82.66;99012.56;5005576;28;19928;-71
2022/12/11 07:37:16;;;;;;;;;;;;;;;1.84;78.79;99055.19;5004906;28;20012;-71
2022/12/11 07:39:42;;;;;;;;;;;;;;;1.82;82.16;99051.78;5005862;28;19945;-71
2022/12/11 07:42:07;;;;;;;;;;;;;;;1.06;86.48;99020.13;5006267;28;19921;-71
2022/12/11 07:44:32;;;;;;;;;;;;;;;1.10;81.97;99028.59;5003601;28;19918;-71
2022/12/11 07:46:57;;;;;;;;;;;;;;;1.34;79.28;99053.25;5005381;28;19922;-71
2022/12/11 07:49:22;;;;;;;;;;;;;;;1.18;80.09;99053.16;5005357;28;19921;-71
2022/12/11 07:51:48;;;;;;;;;;;;;;;1.99;75.55;99089.97;5005407;28;19928;-71
2022/12/11 07:54:15;;;;;;;;;;;;;;;2.23;77.53;99089.19;5005502;28;19964;-71
2022/12/11 07:56:40;;;;;;;;;;;;;;;2.42;80.43;99093.50;5005134;28;20053;-71
2022/12/11 07:59:05;;;;;;;;;;;;;;;2.41;84.02;99076.53;5003646;28;20055;-71
2022/12/11 08:01:32;;;;;;;;;;;;;;;1.41;91.02;99019.47;5005804;28;19943;-71
2022/12/11 08:03:57;;;;;;;;;;;;;;;1.37;87.93;99015.19;5005209;28;19913;-71
2022/12/11 08:06:26;;;;;;;;;;;;;;;1.34;85.12;99022.81;5005633;28;20164;-71
2022/12/11 08:08:52;;;;;;;;;;;;;;;0.87;85.29;99015.75;5003159;28;19913;-72
2022/12/11 08:11:17;;;;;;;;;;;;;;;1.01;81.82;99042.06;5003630;28;19917;-72
2022/12/11 08:13:43;;;;;;;;;;;;;;;0.94;81.33;99046.25;5002928;28;19917;-71
2022/12/11 08:16:10;;;;;;;;;;;;;;;0.93;79.80;99056.34;5003552;28;19921;-71
2022/12/11 08:18:35;;;;;;;;;;;;;;;1.02;78.34;99062.34;5003213;28;20446;-72
2022/12/11 08:21:20;;;;;;;;;;;;;;;1.17;76.41;99081.06;4987578;28;19914;-72
2022/12/11 08:23:45;;;;;;;;;;;;;;;0.78;77.65;99085.81;5003239;28;19992;-72
2022/12/11 08:26:12;;;;;;;;;;;;;;;0.83;74.38;99096.00;5005283;28;19913;-72
2022/12/11 08:28:37;;;;;;;;;;;;;;;0.83;72.21;99106.16;5004891;28;19917;-71
2022/12/11 08:31:06;;;;;;;;;;;;;;;1.02;70.52;99122.34;5004645;28;19921;-71
2022/12/11 08:33:32;;;;;;;;;;;;;;;0.94;69.99;99124.84;5003575;28;20399;-71
2022/12/11 08:35:57;;;;;;;;;;;;;;;0.91;69.92;99134.94;5004646;28;19928;-71
2022/12/11 08:38:22;;;;;;;;;;;;;;;0.94;68.56;99134.13;5004392;28;19929;-71
2022/12/11 08:40:47;;;;;;;;;;;;;;;1.41;66.23;99166.63;5004799;28;19966;-71
2022/12/11 08:43:13;;;;;;;;;;;;;;;1.52;67.34;99164.19;5004082;28;20424;-71
2022/12/11 08:45:38;;;;;;;;;;;;;;;1.47;68.23;99161.59;5004212;28;20440;-71
2022/12/11 08:48:03;;;;;;;;;;;;;;;1.96;67.04;99179.72;5004872;28;19917;-71
2022/12/11 08:50:29;;;;;;;;;;;;;;;2.15;70.07;99172.19;5005109;28;19920;-71
2022/12/11 08:52:54;;;;;;;;;;;;;;;1.56;76.18;99115.16;5004663;28;20362;-71
2022/12/11 08:55:20;;;;;;;;;;;;;;;1.62;76.09;99107.53;5004547;28;19932;-71
2022/12/11 08:57:46;;;;;;;;;;;;;;;1.29;78.44;99087.91;5002969;28;19932;-71
2022/12/11 09:00:11;;;;;;;;;;;;;;;1.28;77.25;99079.44;5003932;28;19918;-71
2022/12/11 09:02:37;;;;;;;;;;;;;;;1.41;76.59;99091.34;5005170;28;19925;-71
2022/12/11 09:05:06;;;;;;;;;;;;;;;1.44;77.08;99083.78;5002989;28;19917;-71
2022/12/11 09:07:31;;;;;;;;;;;;;;;1.75;76.89;99095.78;5004242;28;19960;-71
2022/12/11 09:09:56;;;;;;;;;;;;;;;1.85;78.78;99083.16;5002936;28;20034;-71
2022/12/11 09:12:22;;;;;;;;;;;;;;;2.19;79.57;99082.41;5004184;28;19920;-71
2022/12/11 09:14:47;;;;;;;;;;;;;;;2.14;83.52;99068.84;5004365;28;19918;-71
2022/12/11 09:17:12;;;;;;;;;;;;;;;2.04;86.74;99043.41;5004751;28;19928;-71
2022/12/11 09:19:37;;;;;;;;;;;;;;;2.51;86.14;99040.13;5002418;28;20056;-71
2022/12/11 09:22:03;;;;;;;;;;;;;;;2.62;89.48;99024.03;5003966;28;19917;-71
2022/12/11 09:24:28;;;;;;;;;;;;;;;2.35;94.05;98990.13;5004327;28;19939;-72
2022/12/11 09:26:53;;;;;;;;;;;;;;;2.11;96.70;98962.16;5004119;28;19917;-71
2022/12/11 09:29:18;;;;;;;;;;;;;;;1.85;98.29;98943.47;5003914;28;19986;-71
2022/12/11 09:31:45;;;;;;;;;;;;;;;1.20;100.00;98922.09;5004404;28;19928;-71
2022/12/11 09:34:11;;;;;;;;;;;;;;;1.64;97.27;98945.94;5003398;28;19926;-71
2022/12/11 09:36:40;;;;;;;;;;;;;;;1.13;98.98;98928.00;5004315;28;19952;-71
2022/12/11 09:39:06;;;;;;;;;;;;;;;1.31;94.06;98946.69;5003991;28;19944;-71
2022/12/11 09:41:34;;;;;;;;;;;;;;;2.02;89.63;98989.22;5004563;28;20008;-71
2022/12/11 09:44:01;;;;;;;;;;;;;;;2.20;92.40;98993.50;5002823;28;19914;-71
2022/12/11 09:46:26;;;;;;;;;;;;;;;2.13;94.43;98975.72;5002777;28;20004;-71
2022/12/11 09:48:52;;;;;;;;;;;;;;;1.62;97.74;98951.03;5002301;28;20020;-71
2022/12/11 09:51:17;;;;;;;;;;;;;;;1.49;96.17;98946.75;5004795;28;19917;-71
2022/12/11 09:53:43;;;;;;;;;;;;;;;1.90;92.54;98970.59;5004345;28;19928;-71
2022/12/11 09:56:08;;;;;;;;;;;;;;;2.12;92.71;98974.00;5002372;28;20347;-72
2022/12/11 09:58:33;;;;;;;;;;;;;;;1.98;94.35;98964.66;5006095;28;19921;-71
2022/12/11 10:01:01;;;;;;;;;;;;;;;1.91;95.17;98960.41;5005225;28;20384;-72
2022/12/11 10:03:29;;;;;;;;;;;;;;;2.11;95.29;98962.16;5006168;28;19925;-71
2022/12/11 10:06:04;;;;;;;;;;;;;;;1.97;96.41;98955.34;5006326;28;19971;-71
2022/12/11 10:08:29;;;;;;;;;;;;;;;2.02;95.17;98953.66;5006112;28;19914;-71
2022/12/11 10:11:13;;;;;;;;;;;;;;;2.18;94.53;98964.69;5005080;28;19936;-71
2022/12/11 10:13:41;;;;;;;;;;;;;;;1.92;96.39;98946.88;5005925;28;20031;-71
2022/12/11 10:16:21;;;;;;;;;;;;;;;2.45;93.40;98963.88;5005994;28;19914;-71
2022/12/11 10:18:47;;;;;;;;;;;;;;;2.79;94.73;98968.09;5005507;28;19918;-71
2022/12/11 10:21:12;;;;;;;;;;;;;;;2.59;99.27;98938.44;5005929;28;19944;-71
2022/12/11 10:23:52;;;;;;;;;;;;;;;2.25;100.00;98907.94;5006261;28;20316;-71
2022/12/11 10:26:18;;;;;;;;;;;;;;;2.17;100.00;98901.19;5006389;28;19922;-72
2022/12/11 10:28:43;;;;;;;;;;;;;;;2.29;100.00;98901.19;4989601;28;19913;-71
2022/12/11 10:31:19;;;;;;;;;;;;;;;2.28;100.00;98899.47;5007400;28;19922;-72
2022/12/11 10:33:50;;;;;;;;;;;;;;;2.60;100.00;98911.31;5007147;28;19947;-72
2022/12/11 10:36:18;;;;;;;;;;;;;;;2.84;100.00;98902.81;5006815;28;19986;-71
2022/12/11 10:38:43;;;;;;;;;;;;;;;2.94;100.00;98889.19;5005644;28;19918;-72
2022/12/11 10:41:20;;;;;;;;;;;;;;;3.01;100.00;98870.53;5007284;28;20664;-71
2022/12/11 10:43:46;;;;;;;;;;;;;;;3.00;100.00;98861.19;5006187;28;20068;-71
2022/12/11 10:46:16;;;;;;;;;;;;;;;2.49;100.00;98828.31;5005958;28;19959;-71
2022/12/11 10:48:52;;;;;;;;;;;;;;;2.63;100.00;98819.81;5006902;28;19917;-71
2022/12/11 10:51:17;;;;;;;;;;;;;;;2.47;100.00;98807.13;5006994;28;19925;-71
2022/12/11 10:53:43;;;;;;;;;;;;;;;2.37;100.00;98796.97;5003557;28;19921;-71
2022/12/11 10:56:08;;;;;;;;;;;;;;;2.46;100.00;98797.81;5004947;28;19953;-71
2022/12/11 10:58:36;;;;;;;;;;;;;;;2.42;100.00;98787.66;4985040;28;20399;-71
2022/12/11 11:01:05;;;;;;;;;;;;;;;2.18;100.00;98775.84;5004898;28;19925;-71
2022/12/11 11:03:31;;;;;;;;;;;;;;;1.77;100.00;98774.22;5005973;28;20953;-71
2022/12/11 11:06:05;;;;;;;;;;;;;;;1.98;100.00;98781.78;5004454;28;19972;-71
2022/12/11 11:08:41;;;;;;;;;;;;;;;2.00;100.00;98802.13;5006027;28;19952;-71
2022/12/11 11:11:13;;;;;;;;;;;;;;;2.07;100.00;98807.19;5004059;28;19957;-71
2022/12/11 11:13:38;;;;;;;;;;;;;;;2.21;100.00;98806.31;5004418;28;19922;-71
2022/12/11 11:16:04;;;;;;;;;;;;;;;2.02;100.00;98811.44;5005962;28;20867;-71
2022/12/11 11:18:29;;;;;;;;;;;;;;;2.04;100.00;98807.19;5004286;28;19917;-71
2022/12/11 11:20:55;;;;;;;;;;;;;;;1.77;100.00;98800.44;5004403;28;19925;-71
2022/12/11 11:23:20;;;;;;;;;;;;;;;1.63;100.00;98797.06;5004537;28;19923;-71
2022/12/11 11:25:52;;;;;;;;;;;;;;;1.63;100.00;98792.81;5004809;28;20529;-71
2022/12/11 11:28:20;;;;;;;;;;;;;;;1.52;100.00;98802.09;5003926;28;19928;-71
2022/12/11 11:30:53;;;;;;;;;;;;;;;1.38;100.00;98796.19;5005304;28;20029;-71
2022/12/11 11:33:19;;;;;;;;;;;;;;;1.33;100.00;98795.34;5004115;28;19913;-71
2022/12/11 11:35:54;;;;;;;;;;;;;;;1.28;100.00;98799.53;4988062;28;19913;-71
2022/12/11 11:38:21;;;;;;;;;;;;;;;1.92;100.00;98822.44;5004497;28;19922;-71
2022/12/11 11:41:05;;;;;;;;;;;;;;;1.57;100.00;98804.66;4999956;28;20323;-71
2022/12/11 11:43:33;;;;;;;;;;;;;;;2.04;100.00;98804.66;5005805;28;19925;-72
2022/12/11 11:45:59;;;;;;;;;;;;;;;2.29;100.00;98802.09;5001032;28;20798;-72
2022/12/11 11:48:44;;;;;;;;;;;;;;;1.93;100.00;98780.97;5003241;28;19967;-71
2022/12/11 11:51:15;;;;;;;;;;;;;;;2.47;100.00;98779.16;5004733;28;20432;-71
2022/12/11 11:53:40;;;;;;;;;;;;;;;2.79;100.00;98767.19;5001994;28;19925;-71
2022/12/11 11:56:16;;;;;;;;;;;;;;;2.66;100.00;98739.25;5003197;28;19921;-72
2022/12/11 11:58:46;;;;;;;;;;;;;;;2.57;100.00;98713.03;5002687;28;19921;-71
2022/12/11 12:01:16;;;;;;;;;;;;;;;2.27;100.00;98694.53;5002524;28;20388;-71
2022/12/11 12:03:41;;;;;;;;;;;;;;;1.68;100.00;98687.03;5003121;28;20414;-71
2022/12/11 12:06:18;;;;;;;;;;;;;;;2.12;100.00;98684.41;5004653;28;19952;-72
2022/12/11 12:08:58;;;;;;;;;;;;;;;2.16;100.00;98681.84;5004352;28;20003;-72
2022/12/11 12:11:32;;;;;;;;;;;;;;;2.11;100.00;98672.56;5004644;28;19917;-72
2022/12/11 12:14:04;;;;;;;;;;;;;;;2.34;100.00;98673.31;5004184;28;20008;-71
2022/12/11 12:16:29;;;;;;;;;;;;;;;2.44;100.00;98672.44;5004751;28;19925;-71
2022/12/11 12:19:01;;;;;;;;;;;;;;;2.81;100.00;98663.78;5004157;28;19990;-71
2022/12/11 12:21:32;;;;;;;;;;;;;;;2.35;100.00;98643.66;5003134;28;20015;-71
2022/12/11 12:24:13;;;;;;;;;;;;;;;2.59;100.00;98627.47;5002985;28;19913;-71
2022/12/11 12:27:01;;;;;;;;;;;;;;;2.78;100.00;98630.72;5003925;28;19917;-71
2022/12/11 12:29:45;;;;;;;;;;;;;;;2.25;100.00;98614.94;5000203;28;19922;-71
2022/12/11 12:32:16;;;;;;;;;;;;;;;2.02;100.00;98603.16;5004405;28;20446;-72
2022/12/11 12:34:45;;;;;;;;;;;;;;;2.86;100.00;98614.56;5004050;28;19964;-72
2022/12/11 12:37:10;;;;;;;;;;;;;;;3.10;100.00;98607.59;5005380;28;19925;-71
2022/12/11 12:39:41;;;;;;;;;;;;;;;3.16;100.00;98592.28;5002971;28;19917;-72
2022/12/11 12:42:33;;;;;;;;;;;;;;;3.15;100.00;98582.97;5005177;28;19966;-72
2022/12/11 12:45:09;;;;;;;;;;;;;;;1.57;100.00;98549.16;5003222;28;19922;-72
2022/12/11 12:47:34;;;;;;;;;;;;;;;1.63;100.00;98554.22;5002363;28;20040;-72
2022/12/11 12:49:59;;;;;;;;;;;;;;;1.67;100.00;98561.00;4985923;28;19972;-72
2022/12/11 12:52:34;;;;;;;;;;;;;;;1.54;100.00;98564.41;5002656;28;19956;-72
2022/12/11 12:55:14;;;;;;;;;;;;;;;1.49;100.00;98565.28;5003973;28;20376;-71
2022/12/11 12:57:44;;;;;;;;;;;;;;;2.00;100.00;98569.31;5002659;28;20012;-72
2022/12/11 13:00:11;;;;;;;;;;;;;;;1.47;100.00;98562.75;5001500;28;19927;-72
2022/12/11 13:02:56;;;;;;;;;;;;;;;1.32;100.00;98557.69;5002695;28;19936;-72
2022/12/11 13:05:28;;;;;;;;;;;;;;;1.02;100.00;98567.03;5003496;28;19927;-72